Tiempo atmosférico en la estación meteorológica de Palencia, Palencia (736 m.)



Fecha
DESCASC
Temp. máxima en grados centígrados (hora)
DESCASC
Temp. mínima en grados centígrados (hora)
DESCASC
Temp. media en grados centígrados
DESCASC
Racha de viento máxima en m/sg (hora)
DESCASC
Velocidad máxima media en intervalos de 10 minutos(hora)
DESCASC
Precipitaciones diarias en mm
DESCASC
Precipitaciones de 00:00 a 06:00 en mm
DESCASC
Precipitaciones de 06:00 a 12:00 en mm
DESCASC
Precipitaciones de 12:00 a 18:00 en mm
DESCASC
Precipitaciones de 18:00 a 24:00 en mm
DESCASC
20-09-2020 20.4 (17:20) 13.9 (01:00) 17.1 7.78 (14:00) 4.72 (14:00) 7.2 0.6 3.4 2.6 0.6
19-09-2020 18.8 (16:10) 13.1 (06:20) 15.9 11.11 (16:30) 6.11 (16:30) 17 0.2 12 4.6 0.2
17-09-2020 26.9 (17:20) 17 (00:00) 21.9 10 (12:40) 5 (23:20) 0.4 0.2 0.2 0 0
16-09-2020 29.9 (17:00) 11.4 (08:10) 20.6 4.17 (14:20) 1.94 (11:00) 0 0 0 0 0
15-09-2020 27.4 (17:40) 12.9 (00:00) 20.1 15.56 (00:10) 5.28 (00:30) 5.2 5.2 0 0 0
14-09-2020 30.4 (17:50) 13.5 (00:00) 21.9 22.78 (20:00) 5.28 (20:00) 13.4 0 0 0 13.4
13-09-2020 33.4 (15:00) 8.9 (00:00) 21.2 6.39 (15:00) 2.78 (17:10) 0 0 0 0 0
12-09-2020 30.9 (16:40) 9.2 (08:20) 20 6.11 (14:40) 2.78 (20:10) 0 0 0 0 0
11-09-2020 30.1 (17:30) 10 (00:00) 20.1 5.56 (13:30) 2.78 (13:30) 0 0 0 0 0
10-09-2020 29.6 (17:20) 10 (00:00) 19.8 5.56 (16:40) 2.78 (18:10) 0 0 0 0 0
09-09-2020 29.3 (17:20) 7 (07:50) 18.1 6.11 (18:10) 3.06 (19:00) 0 0 0 0 0
08-09-2020 26.2 (16:40) 7.3 (00:00) 16.8 8.61 (01:00) 3.89 (13:50) 0 0 0 0 0
07-09-2020 21.1 (16:20) 9.9 (06:30) 15.5 10 (11:50) 5.83 (12:00) 0 0 0 0 0
06-09-2020 23.6 (16:30) 13.5 (00:00) 18.6 8.89 (18:00) 4.17 (02:50) 0 0 0 0 0
05-09-2020 29.6 (16:50) 11.3 (00:00) 20.5 9.72 (18:50) 4.44 (17:50) 0 0 0 0 0
04-09-2020 33.8 (16:30) 8.1 (00:00) 20.9 7.78 (16:40) 4.17 (16:40) 0 0 0 0 0
03-09-2020 31.2 (18:20) 7.5 (00:00) 19.4 3.89 (15:00) 1.94 (15:50) 0 0 0 0 0
02-09-2020 27.1 (18:00) 9.7 (00:00) 18.4 6.67 (11:20) 3.61 (15:10) 0 0 0 0 0
01-09-2020 28.1 (16:50) 10.2 (00:00) 19.2 8.33 (22:40) 3.89 (20:50) 0 0 0 0 0
31-08-2020 23.7 (16:50) 3.3 (00:00) 13.5 6.39 (19:00) 3.33 (19:00) 0 0 0 0 0
30-08-2020 20.2 (18:00) 4.4 (00:00) 12.3 7.22 (20:30) 3.61 (19:40) 0 0 0 0 0
29-08-2020 20.7 (17:20) 6.9 (00:00) 13.8 10.83 (15:50) 6.39 (14:00) 0 0 0 0 0
28-08-2020 26.9 (16:10) 14 (00:00) 20.4 10.56 (18:10) 5.28 (16:30) 0 0 0 0 0
27-08-2020 34 (17:10) 14.9 (00:00) 24.4 8.33 (18:10) 4.17 (18:10) 0 0 0 0 0
26-08-2020 34 (17:00) 12.3 (00:00) 23.2 6.67 (17:00) 3.61 (17:20) 0 0 0 0 0
25-08-2020 34.1 (17:10) 9.7 (00:00) 21.9 10 (16:20) 5 (16:20) 0 0 0 0 0
24-08-2020 29.6 (18:20) 11.5 (07:50) 20.6 5.56 (14:40) 3.06 (14:20) 0 0 0 0 0
23-08-2020 28.7 (17:30) 11.2 (00:00) 20 6.94 (18:00) 3.61 (18:30) 0 0 0 0 0

Gráficas

Temp. máximas Temp. mínimas Temp. medias Precipitaciones Rachas de viento máximas Velocidades máximas media en intervalos de 10 minutos

Datos horarios

Fecha y hora oficial Temperatura (ºC) Velocidad del viento (km/h) Dirección del viento Racha (km/h) Dirección de racha Precipitación (mm) Presión (hPa) Tendencia (hPa) Humedad (%)
2020-09-21 23:00:00 14.9 0 Calma 7 Oeste 0 -- -- 86
2020-09-21 22:00:00 16 2 Sudoeste 6 Norte 0 -- -- 79
2020-09-21 21:00:00 16.8 2 Norte 9 Noroeste 0 -- -- 77
2020-09-21 20:00:00 19.7 3 Oeste 12 Sudoeste 0 -- -- 64
2020-09-21 19:00:00 21.8 3 Oeste 12 Sudoeste 0 -- -- 54
2020-09-21 18:00:00 21.7 3 Este 10 Sudeste 0 -- -- 57
2020-09-21 17:00:00 21.2 2 Sudeste 12 Sudeste 0 -- -- 60
2020-09-21 16:00:00 19.9 3 Sudoeste 8 Sur 0 -- -- 67
2020-09-21 15:00:00 19.2 3 Este 10 Sudeste 0 -- -- 68
2020-09-21 14:00:00 19 6 Sur 14 Sudoeste 0 -- -- 72
2020-09-21 13:00:00 17.2 3 Sudeste 13 Sudeste 0 -- -- 81
2020-09-21 12:00:00 16 4 Sudeste 8 Sur 0 -- -- 90
2020-09-21 11:00:00 15.2 4 Sudeste 10 Sur 0 -- -- 93
2020-09-21 10:00:00 14 3 Sur 7 Sur 0 -- -- 98
2020-09-21 09:00:00 13.1 2 Sudeste 5 Sur 0 -- -- 99
2020-09-21 08:00:00 12.3 0 Calma 9 Sudeste 0 -- -- 98
2020-09-21 07:00:00 11.9 3 Sur 6 Sudoeste 0 -- -- 97
2020-09-21 06:00:00 12.1 0 Calma 4 Sudoeste 0 -- -- 97
2020-09-21 05:00:00 12.4 0 Calma 4 Sudoeste 0 -- -- 97
2020-09-21 04:00:00 12.6 0 Calma 0 Calma 0 -- -- 96
2020-09-21 03:00:00 12.6 0 Calma 6 Oeste 0 -- -- 95
2020-09-21 02:00:00 13.1 0 Calma 6 Sudoeste 0 -- -- 94
2020-09-21 01:00:00 13.7 0 Calma 3 Noroeste 0 -- -- 92
2020-09-21 00:00:00 15 4 Noroeste 10 Noroeste 0 -- -- 91
2020-09-20 23:00:00 15.8 7 Noroeste 18 Norte 0.4 -- -- 93
2020-09-20 22:00:00 16.3 8 Noroeste 15 Noroeste 0 -- -- 88
2020-09-20 21:00:00 16.5 6 Noroeste 11 Noroeste 0 -- -- 90
2020-09-20 20:00:00 17.6 6 Noroeste 16 Noroeste 0.2 -- -- 85
2020-09-20 19:00:00 19.3 5 Noroeste 14 Noroeste 0 -- -- 75
2020-09-20 18:00:00 19.7 5 Noroeste 14 Noroeste 0 -- -- 76
2020-09-20 17:00:00 19.5 6 Noroeste 28 Noroeste 0.2 -- -- 81
2020-09-20 16:00:00 19 12 Noroeste 24 Oeste 0.4 -- -- 85
2020-09-20 15:00:00 17.5 9 Noroeste 24 Oeste 1.8 -- -- 89
2020-09-20 14:00:00 19 17 Oeste 28 Sudoeste 0 -- -- 80
2020-09-20 13:00:00 18 9 Sudoeste 26 Sudoeste 0.2 -- -- 85
2020-09-20 12:00:00 16.9 9 Oeste 17 Sudoeste 0 -- -- 90
2020-09-20 11:00:00 16.1 4 Sudoeste 14 Sudoeste 0.2 -- -- 96
2020-09-20 10:00:00 15.7 3 Sudoeste 10 Sudoeste 0.4 -- -- 96
2020-09-20 09:00:00 15.2 0 Calma 5 Sudeste 1.8 -- -- 96
2020-09-20 08:00:00 15.2 4 Sudeste 6 Sudeste 0.6 -- -- 96
2020-09-20 07:00:00 15.1 0 Calma 5 Sudeste 0.4 -- -- 95
2020-09-20 06:00:00 15.1 0 Calma 4 Noroeste 0.6 -- -- 95
2020-09-20 05:00:00 15 2 Sudeste 5 Sudeste 0 -- -- 94
2020-09-20 04:00:00 14.9 0 Calma 5 Sudeste 0 -- -- 93
2020-09-20 03:00:00 14.6 3 Sudeste 6 Sudeste 0 -- -- 93
2020-09-20 02:00:00 14.4 0 Calma 7 Sudeste 0 -- -- 93
2020-09-20 01:00:00 13.9 3 Sur 14 Sudoeste 0 -- -- 91
2020-09-20 00:00:00 14.8 9 Sudoeste 18 Sudoeste 0 -- -- 90
2020-09-19 23:00:00 15.1 6 Oeste 20 Oeste 0 -- -- 86
2020-09-19 22:00:00 15.8 9 Oeste 27 Oeste 0 -- -- 82
2020-09-19 21:00:00 16.3 9 Oeste 24 Oeste 0 -- -- 83
2020-09-19 20:00:00 16.7 12 Oeste 26 Oeste 0 -- -- 84
2020-09-19 19:00:00 16.3 14 Oeste 33 Oeste 0.2 -- -- 87
2020-09-19 18:00:00 16.7 6 Oeste 28 Oeste 0.6 -- -- 90
2020-09-19 17:00:00 15.7 14 Oeste 40 Oeste 1.6 -- -- 90
2020-09-19 16:00:00 18.5 13 Oeste 26 Oeste 0 -- -- 78
2020-09-19 15:00:00 17.5 15 Oeste 32 Oeste 0 -- -- 85
2020-09-19 14:00:00 15.6 15 Oeste 32 Oeste 1.4 -- -- 97
2020-09-19 13:00:00 15 10 Oeste 23 Oeste 1 -- -- 94
2020-09-19 12:00:00 14.6 12 Oeste 19 Oeste 0.4 -- -- 98
2020-09-19 11:00:00 14 5 Oeste 8 Oeste 4.2 -- -- 97
2020-09-19 10:00:00 13.6 4 Noroeste 9 Sudeste 2 -- -- 97
2020-09-19 09:00:00 13.4 5 Sudeste 17 Sudeste 4.4 -- -- 96
2020-09-19 08:00:00 13.4 10 Sudeste 15 Sudeste 0.6 -- -- 95
2020-09-19 07:00:00 13.2 5 Sudeste 9 Sudeste 0.4 -- -- 94
2020-09-19 06:00:00 13.2 4 Sur 6 Sudeste 0 -- -- 93
2020-09-19 05:00:00 13.7 0 Calma 8 Sudeste 0 -- -- 92
2020-09-19 04:00:00 13.6 4 Sudeste 6 Sur 0.2 -- -- 91
2020-09-19 03:00:00 13.6 2 Sudeste 9 Sudeste 0 -- -- 91
2020-09-19 02:00:00 13.5 3 Sudeste 9 Sur 0 -- -- 90
2020-09-19 01:00:00 13.8 4 Sur 8 Sudeste 0 -- -- 89
2020-09-19 00:00:00 14 2 Sur 9 Sudeste 0.4 -- -- 87
2020-09-18 23:00:00 14.3 3 Sudeste 13 Sudeste 1 -- -- 86
2020-09-18 22:00:00 15.4 6 Sudeste 17 Sudeste 0.2 -- -- 79
2020-09-18 21:00:00 16 6 Sudeste 26 Sudoeste 0 -- -- 71
2020-09-18 20:00:00 17.6 12 Sur 48 Sudeste 0 -- -- 72
2020-09-18 19:00:00 21.2 4 Sudeste 14 Sur 0 -- -- 54
2020-09-18 18:00:00 21.9 8 Sudeste 20 Sudeste 0 -- -- 51
2020-09-18 17:00:00 22.3 6 Sur 21 Sur 0 -- -- 48
2020-09-18 16:00:00 23.3 8 Sur 27 Sudoeste 0 -- -- 52
2020-09-18 15:00:00 23.4 12 Sur 26 Sudoeste 0 -- -- 52
2020-09-18 14:00:00 21.1 11 Sudeste 35 Sudeste 0 -- -- 67
2020-09-18 13:00:00 20.2 13 Sudeste 26 Este 0 -- -- 71
2020-09-18 12:00:00 18.1 13 Sudeste 30 Sudeste 0 -- -- 77
2020-09-18 11:00:00 15.3 12 Sudeste 23 Sudeste 0 -- -- 93
2020-09-18 10:00:00 14.2 14 Sudeste 27 Sudeste 0.4 -- -- 95
2020-09-18 09:00:00 14.1 5 Sur 18 Oeste 1.2 -- -- 90
2020-09-18 08:00:00 15.3 3 Sudoeste 16 Sudeste 0.2 -- -- 93
2020-09-18 07:00:00 15.6 5 Sudeste 19 Sudeste 1.8 -- -- 94
2020-09-18 06:00:00 15.7 10 Sudeste 26 Sudeste 4.8 -- -- 93
2020-09-18 05:00:00 16.5 12 Sudeste 19 Sur 0 -- -- 83
2020-09-18 04:00:00 16.7 8 Sudeste 20 Sudeste 0 -- -- 80
2020-09-18 03:00:00 16.5 9 Sudeste 19 Sudeste 0 -- -- 83
2020-09-18 02:00:00 16.9 12 Sudeste 32 Sur 0 -- -- 80
2020-09-18 01:00:00 19.1 15 Sur 39 Sudoeste 0 -- -- 68
2020-09-18 00:00:00 20.1 9 Sur 34 Este 0 -- -- 58
2020-09-17 23:00:00 20.9 10 Sudeste 20 Sur 0 -- -- 63
2020-09-17 22:00:00 21.4 6 Sudeste 18 Sudeste 0 -- -- 63
2020-09-17 21:00:00 22.7 10 Sudeste 22 Sudoeste 0 -- -- 57
2020-09-17 20:00:00 24.1 9 Sur 28 Sudeste 0 -- -- 52
2020-09-17 19:00:00 25.7 11 Sudeste 30 Sur 0 -- -- 47
2020-09-17 18:00:00 26.6 14 Sudeste 28 Sudeste 0 -- -- 44
2020-09-17 17:00:00 26.7 10 Sudeste 23 Sudeste 0 -- -- 49
2020-09-17 16:00:00 26.3 14 Sudeste 28 Sudeste 0 -- -- 50
2020-09-17 15:00:00 25 12 Sur 26 Sudeste 0 -- -- 51
2020-09-17 14:00:00 23.1 14 Sudeste 29 Sudeste 0 -- -- 58
2020-09-17 13:00:00 22.3 8 Sudeste 36 Sudeste 0 -- -- 64
2020-09-17 12:00:00 21.4 8 Sudeste 18 Sudeste 0 -- -- 74
2020-09-17 11:00:00 19.3 5 Sudeste 8 Sudeste 0 -- -- 77
2020-09-17 10:00:00 18.9 3 Sudeste 7 Sudeste 0.2 -- -- 83
2020-09-17 09:00:00 17.2 0 Calma 8 Sudoeste 0 -- -- 87
2020-09-17 08:00:00 17.1 0 Calma 6 Sudoeste 0 -- -- 86
2020-09-17 07:00:00 17.1 3 Oeste 5 Noroeste 0 -- -- 85
2020-09-17 06:00:00 17.3 0 Calma 9 Sudeste 0 -- -- 81
2020-09-17 05:00:00 17.2 3 Sur 9 Sudeste 0 -- -- 80
2020-09-17 04:00:00 17.7 3 Sudoeste 22 Sudeste 0.2 -- -- 79
2020-09-17 03:00:00 19.7 6 Sur 31 Sudoeste 0 -- -- 62
2020-09-17 02:00:00 19.3 5 Sudeste 12 Sudeste 0 -- -- 68
2020-09-17 01:00:00 19.2 2 Sudoeste 6 Sudoeste 0 -- -- 71
2020-09-17 00:00:00 19.7 3 Norte 7 Norte 0 -- -- 64
2020-09-16 23:00:00 20.4 4 Este 9 Nordeste 0 -- -- 63
2020-09-16 22:00:00 20.6 4 Oeste 8 Noroeste 0 -- -- 65
2020-09-16 21:00:00 21.9 3 Noroeste 4 Noroeste 0 -- -- 60
2020-09-16 20:00:00 24.9 3 Oeste 5 Oeste 0 -- -- 54
2020-09-16 19:00:00 28 0 Calma 5 Sur 0 -- -- 38
2020-09-16 18:00:00 28.3 4 Sudeste 10 Sudeste 0 -- -- 36
2020-09-16 17:00:00 29.9 4 Sudoeste 12 Sudeste 0 -- -- 36
2020-09-16 16:00:00 28.8 0 Calma 12 Sudeste 0 -- -- 40
2020-09-16 15:00:00 28.1 3 Este 15 Sudeste 0 -- -- 40
2020-09-16 14:00:00 26.8 4 Sudeste 14 Sudeste 0 -- -- 44
2020-09-16 13:00:00 25.4 4 Sudeste 10 Sudeste 0 -- -- 53
2020-09-16 12:00:00 22.5 4 Sudeste 9 Sudeste 0 -- -- 63
2020-09-16 11:00:00 19.3 7 Sudeste 10 Sudeste 0 -- -- 76
2020-09-16 10:00:00 15.4 4 Sudeste 6 Sudeste 0 -- -- 89
2020-09-16 09:00:00 12.3 0 Calma 0 Calma 0 -- -- 93
2020-09-16 08:00:00 11.5 0 Calma 0 Calma 0 -- -- 93
2020-09-16 07:00:00 11.9 0 Calma 2 Sudoeste 0 -- -- 91
2020-09-16 06:00:00 12.4 0 Calma 4 Sur 0 -- -- 89
2020-09-16 05:00:00 12.9 3 Sudeste 4 Sudeste 0 -- -- 87
2020-09-16 04:00:00 13.8 0 Calma 4 Oeste 0 -- -- 88
2020-09-16 03:00:00 14.5 4 Sudeste 7 Sudeste 0 -- -- 86
2020-09-16 02:00:00 15.2 5 Sudeste 10 Sudeste 0 -- -- 83
2020-09-16 01:00:00 16.4 3 Sudeste 8 Oeste 0 -- -- 81
2020-09-16 00:00:00 17 0 Calma 5 Sudoeste 0 -- -- 81
2020-09-15 23:00:00 16.9 0 Calma 5 Sudoeste 0 -- -- 77
2020-09-15 22:00:00 18.2 2 Noroeste 7 Sudoeste 0 -- -- 75
2020-09-15 21:00:00 20.1 3 Sur 9 Sudoeste 0 -- -- 67
2020-09-15 20:00:00 24.5 0 Calma 12 Sudoeste 0 -- -- 53
2020-09-15 19:00:00 26.2 5 Sur 19 Sudoeste 0 -- -- 45
2020-09-15 18:00:00 26.9 6 Sudoeste 22 Sudoeste 0 -- -- 44
2020-09-15 17:00:00 27.1 7 Sur 20 Oeste 0 -- -- 45
2020-09-15 16:00:00 27.2 9 Sudoeste 21 Oeste 0 -- -- 44
2020-09-15 15:00:00 26.4 9 Sudoeste 22 Oeste 0 -- -- 49
2020-09-15 14:00:00 24.8 7 Oeste 14 Oeste 0 -- -- 59
2020-09-15 13:00:00 23.3 8 Sudeste 18 Sur 0 -- -- 78
2020-09-15 12:00:00 21 8 Sudeste 18 Sudeste 0 -- -- 88
2020-09-15 11:00:00 19.1 7 Sudeste 14 Sudeste 0 -- -- 92
2020-09-15 10:00:00 16.5 5 Sudeste 12 Este 0 -- -- 100
2020-09-15 09:00:00 14.1 2 Sur 5 Sudoeste 0 -- -- 99
2020-09-15 08:00:00 13.1 3 Sudoeste 5 Sudoeste 0 -- -- 98
2020-09-15 07:00:00 13.4 3 Sudoeste 6 Sudoeste 0 -- -- 98
2020-09-15 06:00:00 14 3 Sur 7 Noroeste 0 -- -- 97
2020-09-15 05:00:00 14.6 4 Sur 9 Sur 0 -- -- 97
2020-09-15 04:00:00 15.1 3 Oeste 9 Sudeste 0.2 -- -- 96
2020-09-15 03:00:00 15.2 3 Sur 17 Sudeste 0.4 -- -- 96
2020-09-15 02:00:00 15.2 5 Oeste 14 Sudeste 1.2 -- -- 95
2020-09-15 01:00:00 15.6 8 Sur 56 Oeste 3.4 -- -- 91
2020-09-15 00:00:00 17 9 Sudeste 20 Sudeste 0.6 -- -- 94
2020-09-14 23:00:00 17.2 5 Noroeste 14 Noroeste 0.6 -- -- 90
2020-09-14 22:00:00 16.9 3 Oeste 21 Norte 0 -- -- 90
2020-09-14 21:00:00 18 10 Noroeste 43 Oeste 7.6 -- -- 86
2020-09-14 20:00:00 22.9 19 Sudoeste 82 Sudoeste 4.6 -- -- 61
2020-09-14 19:00:00 28.9 5 Sudeste 18 Sur 0 -- -- 38
2020-09-14 18:00:00 29.9 10 Sur 26 Sudoeste 0 -- -- 34
2020-09-14 17:00:00 29.3 6 Sudeste 21 Sudeste 0 -- -- 43
2020-09-14 16:00:00 28.5 6 Este 18 Sudeste 0 -- -- 42
2020-09-14 15:00:00 25.5 4 Sudeste 9 Sudeste 0 -- -- 49
2020-09-14 14:00:00 25.3 2 Sudeste 13 Sudoeste 0 -- -- 49
2020-09-14 13:00:00 25.1 5 Sur 14 Sudeste 0 -- -- 45
2020-09-14 12:00:00 24.6 5 Sudeste 22 Sudeste 0 -- -- 51
2020-09-14 11:00:00 23.9 12 Sudeste 20 Sudeste 0 -- -- 52
2020-09-14 10:00:00 19.9 9 Sudeste 14 Sudeste 0 -- -- 62
2020-09-14 09:00:00 15 0 Calma 5 Sudeste 0 -- -- 75
2020-09-14 08:00:00 13.5 0 Calma 3 Sudoeste 0 -- -- 73
2020-09-14 07:00:00 14.3 2 Sudoeste 10 Sudeste 0 -- -- 66
2020-09-14 06:00:00 14.9 3 Sur 9 Sudeste 0 -- -- 66
2020-09-14 05:00:00 14.8 0 Calma 4 Sudeste 0 -- -- 64
2020-09-14 04:00:00 15.4 0 Calma 4 Sudeste 0 -- -- 63
2020-09-14 03:00:00 17.3 0 Calma 10 Sudeste 0 -- -- 59
2020-09-14 02:00:00 18.6 4 Sudeste 8 Sudeste 0 -- -- 54
2020-09-14 01:00:00 18.9 3 Sudeste 9 Sudeste 0 -- -- 53
2020-09-14 00:00:00 17.9 4 Sudeste 8 Sudeste 0 -- -- 57
2020-09-13 23:00:00 19 0 Calma 6 Sudeste 0 -- -- 52
2020-09-13 22:00:00 20.5 3 Sur 10 Sudeste 0 -- -- 49
2020-09-13 21:00:00 23.2 5 Sudoeste 9 Sudoeste 0 -- -- 39
2020-09-13 20:00:00 30.3 2 Sudoeste 12 Sudoeste 0 -- -- 34
2020-09-13 19:00:00 32.3 8 Sudoeste 16 Oeste 0 -- -- 27
2020-09-13 18:00:00 33.1 5 Oeste 21 Sudoeste 0 -- -- 27
2020-09-13 17:00:00 31.8 7 Sudoeste 20 Oeste 0 -- -- 28
2020-09-13 16:00:00 32.2 8 Oeste 21 Sur 0 -- -- 29
2020-09-13 15:00:00 33.4 9 Sudoeste 23 Oeste 0 -- -- 26
2020-09-13 14:00:00 30.9 7 Sudeste 18 Sudeste 0 -- -- 32
2020-09-13 13:00:00 29.1 8 Sudeste 16 Sudeste 0 -- -- 42
2020-09-13 12:00:00 26.1 7 Sudeste 13 Sudeste 0 -- -- 45
2020-09-13 11:00:00 22.2 6 Sudeste 10 Sudeste 0 -- -- 49
2020-09-13 10:00:00 15.8 0 Calma 3 Sudeste 0 -- -- 61
2020-09-13 09:00:00 10.5 0 Calma 2 Oeste 0 -- -- 79
2020-09-13 08:00:00 8.9 0 Calma 3 Sudoeste 0 -- -- 75
2020-09-13 07:00:00 9.5 0 Calma 4 Noroeste 0 -- -- 72
2020-09-13 06:00:00 10.1 2 Noroeste 5 Norte 0 -- -- 68
2020-09-13 05:00:00 11.5 4 Oeste 7 Norte 0 -- -- 64
2020-09-13 04:00:00 11.8 4 Noroeste 7 Noroeste 0 -- -- 67
2020-09-13 03:00:00 12.5 3 Oeste 6 Oeste 0 -- -- 59
2020-09-13 02:00:00 15.5 3 Noroeste 11 Nordeste 0 -- -- 51
2020-09-13 01:00:00 18.6 6 Nordeste 16 Sur 0 -- -- 41
2020-09-13 00:00:00 19.1 0 Calma 10 Nordeste 0 -- -- 41
2020-09-12 23:00:00 18.2 4 Sudoeste 9 Oeste 0 -- -- 43
2020-09-12 22:00:00 18.5 0 Calma 5 Nordeste 0 -- -- 39
2020-09-12 21:00:00 23.6 4 Este 17 Este 0 -- -- 34
2020-09-12 20:00:00 27.6 10 Nordeste 19 Nordeste 0 -- -- 25
2020-09-12 19:00:00 29.5 7 Nordeste 14 Nordeste 0 -- -- 23
2020-09-12 18:00:00 30.3 2 Sudeste 19 Sudeste 0 -- -- 26
2020-09-12 17:00:00 30.9 4 Este 17 Sudeste 0 -- -- 23
2020-09-12 16:00:00 30.3 6 Este 17 Este 0 -- -- 26
2020-09-12 15:00:00 29.6 6 Este 22 Sur 0 -- -- 27
2020-09-12 14:00:00 28.5 5 Este 18 Sudeste 0 -- -- 27
2020-09-12 13:00:00 26.7 5 Este 14 Este 0 -- -- 37
2020-09-12 12:00:00 23.9 4 Nordeste 10 Norte 0 -- -- 47
2020-09-12 11:00:00 19.5 4 Norte 7 Norte 0 -- -- 66
2020-09-12 10:00:00 15 2 Sudeste 4 Oeste 0 -- -- 81
2020-09-12 09:00:00 10.8 3 Oeste 4 Sudoeste 0 -- -- 93
2020-09-12 08:00:00 9.3 0 Calma 5 Oeste 0 -- -- 90
2020-09-12 07:00:00 9.5 3 Noroeste 6 Oeste 0 -- -- 88
2020-09-12 06:00:00 10.2 0 Calma 6 Sudoeste 0 -- -- 85
2020-09-12 05:00:00 11 0 Calma 3 Sur 0 -- -- 84
2020-09-12 04:00:00 12.8 2 Oeste 6 Noroeste 0 -- -- 80
2020-09-12 03:00:00 13.8 4 Noroeste 12 Sudeste 0 -- -- 80
2020-09-12 02:00:00 14 0 Calma 5 Noroeste 0 -- -- 72
2020-09-12 01:00:00 15.8 4 Noroeste 6 Noroeste 0 -- -- 66
2020-09-12 00:00:00 16.7 3 Sudoeste 9 Este 0 -- -- 58
2020-09-11 23:00:00 16.3 2 Oeste 6 Sudoeste 0 -- -- 51
2020-09-11 22:00:00 17.1 4 Sudoeste 8 Este 0 -- -- 43
2020-09-11 21:00:00 20 4 Oeste 6 Sudoeste 0 -- -- 35
2020-09-11 20:00:00 27.7 2 Norte 13 Noroeste 0 -- -- 28
2020-09-11 19:00:00 29.3 7 Noroeste 14 Norte 0 -- -- 26
2020-09-11 18:00:00 29.8 9 Noroeste 16 Norte 0 -- -- 26
2020-09-11 17:00:00 29.9 5 Noroeste 15 Norte 0 -- -- 28
2020-09-11 16:00:00 29.1 5 Nordeste 18 Noroeste 0 -- -- 36
2020-09-11 15:00:00 27.9 5 Nordeste 18 Norte 0 -- -- 38
2020-09-11 14:00:00 27.8 6 Noroeste 20 Noroeste 0 -- -- 37
2020-09-11 13:00:00 26 6 Noroeste 12 Noroeste 0 -- -- 44
2020-09-11 12:00:00 23.4 5 Norte 10 Noroeste 0 -- -- 54
2020-09-11 11:00:00 19.8 3 Norte 7 Norte 0 -- -- 63
2020-09-11 10:00:00 14.7 5 Noroeste 10 Noroeste 0 -- -- 77
2020-09-11 09:00:00 11.7 4 Noroeste 6 Noroeste 0 -- -- 87
2020-09-11 08:00:00 10.1 3 Oeste 5 Sudoeste 0 -- -- 86
2020-09-11 07:00:00 11 0 Calma 5 Sudoeste 0 -- -- 83
2020-09-11 06:00:00 12.3 0 Calma 7 Norte 0 -- -- 80
2020-09-11 05:00:00 12.1 3 Noroeste 5 Noroeste 0 -- -- 78
2020-09-11 04:00:00 13.4 5 Noroeste 7 Norte 0 -- -- 73
2020-09-11 03:00:00 14.7 0 Calma 5 Nordeste 0 -- -- 71
2020-09-11 02:00:00 15.6 2 Norte 5 Nordeste 0 -- -- 67
2020-09-11 01:00:00 16.5 2 Noroeste 8 Este 0 -- -- 63
2020-09-11 00:00:00 17.5 0 Calma 9 Nordeste 0 -- -- 60
2020-09-10 23:00:00 18.5 6 Nordeste 13 Este 0 -- -- 55
2020-09-10 22:00:00 17.6 0 Calma 5 Oeste 0 -- -- 51
2020-09-10 21:00:00 20.7 4 Oeste 5 Norte 0 -- -- 42
2020-09-10 20:00:00 26.9 3 Norte 15 Norte 0 -- -- 35
2020-09-10 19:00:00 28 8 Norte 19 Noroeste 0 -- -- 31
2020-09-10 18:00:00 29 8 Norte 19 Noroeste 0 -- -- 30
2020-09-10 17:00:00 29.2 8 Noroeste 20 Noroeste 0 -- -- 32
2020-09-10 16:00:00 29.3 8 Oeste 18 Noroeste 0 -- -- 32
2020-09-10 15:00:00 27.4 5 Nordeste 16 Noroeste 0 -- -- 40
2020-09-10 14:00:00 26.5 5 Oeste 13 Noroeste 0 -- -- 40
2020-09-10 13:00:00 25.1 5 Norte 12 Norte 0 -- -- 43
2020-09-10 12:00:00 22.8 0 Calma 6 Noroeste 0 -- -- 49
2020-09-10 11:00:00 19.3 2 Norte 10 Noroeste 0 -- -- 57
2020-09-10 10:00:00 14.9 6 Noroeste 9 Norte 0 -- -- 74
2020-09-10 09:00:00 11.9 4 Norte 6 Norte 0 -- -- 85
2020-09-10 08:00:00 10 2 Noroeste 5 Oeste 0 -- -- 87
2020-09-10 07:00:00 10.7 0 Calma 5 Oeste 0 -- -- 84
2020-09-10 06:00:00 11.1 0 Calma 5 Sur 0 -- -- 82
2020-09-10 05:00:00 11.2 2 Sudoeste 6 Sudoeste 0 -- -- 81
2020-09-10 04:00:00 12.4 2 Norte 4 Nordeste 0 -- -- 80
2020-09-10 03:00:00 14.1 0 Calma 8 Nordeste 0 -- -- 73
2020-09-10 02:00:00 15.3 3 Norte 8 Nordeste 0 -- -- 68
2020-09-10 01:00:00 15.6 3 Norte 9 Nordeste 0 -- -- 65
2020-09-10 00:00:00 16.6 2 Nordeste 7 Noroeste 0 -- -- 61
2020-09-09 23:00:00 18.4 4 Norte 9 Norte 0 -- -- 56
2020-09-09 22:00:00 20.9 4 Noroeste 12 Este 0 -- -- 51
2020-09-09 21:00:00 23.6 9 Nordeste 21 Este 0 -- -- 43
2020-09-09 20:00:00 26.8 6 Noroeste 17 Norte 0 -- -- 32
2020-09-09 19:00:00 27.6 11 Norte 22 Noroeste 0 -- -- 30
2020-09-09 18:00:00 28.7 10 Noroeste 19 Noroeste 0 -- -- 29
2020-09-09 17:00:00 29.2 8 Noroeste 18 Noroeste 0 -- -- 29
2020-09-09 16:00:00 28.4 3 Norte 17 Oeste 0 -- -- 31
2020-09-09 15:00:00 27.8 4 Nordeste 14 Noroeste 0 -- -- 33
2020-09-09 14:00:00 26.7 5 Noroeste 14 Norte 0 -- -- 32
2020-09-09 13:00:00 25.3 7 Norte 14 Norte 0 -- -- 34
2020-09-09 12:00:00 23 3 Sudeste 12 Sudeste 0 -- -- 39
2020-09-09 11:00:00 19.8 7 Sudeste 13 Sudeste 0 -- -- 50
2020-09-09 10:00:00 13.9 4 Sudeste 6 Sudeste 0 -- -- 67
2020-09-09 09:00:00 9.6 0 Calma 4 Sur 0 -- -- 86
2020-09-09 08:00:00 7 0 Calma 5 Oeste 0 -- -- 82
2020-09-09 07:00:00 7.7 0 Calma 4 Noroeste 0 -- -- 80
2020-09-09 06:00:00 8.3 0 Calma 4 Oeste 0 -- -- 77
2020-09-09 05:00:00 8.8 0 Calma 6 Oeste 0 -- -- 72
2020-09-09 04:00:00 9.9 3 Oeste 11 Oeste 0 -- -- 68
2020-09-09 03:00:00 10.4 2 Sudoeste 8 Sudoeste 0 -- -- 64
2020-09-09 02:00:00 11 4 Oeste 8 Sudoeste 0 -- -- 61
2020-09-09 01:00:00 12.3 0 Calma 6 Oeste 0 -- -- 58
2020-09-09 00:00:00 14 3 Noroeste 7 Noroeste 0 -- -- 55
2020-09-08 23:00:00 15.1 3 Sudoeste 8 Sudoeste 0 -- -- 50
2020-09-08 22:00:00 16.7 2 Oeste 6 Nordeste 0 -- -- 46
2020-09-08 21:00:00 20 2 Norte 10 Noroeste 0 -- -- 43
2020-09-08 20:00:00 24.7 0 Calma 18 Sudeste 0 -- -- 36
2020-09-08 19:00:00 24.9 7 Sudeste 24 Sudeste 0 -- -- 33
2020-09-08 18:00:00 25.8 9 Sudeste 25 Sudeste 0 -- -- 29
2020-09-08 17:00:00 26.2 9 Este 30 Nordeste 0 -- -- 28
2020-09-08 16:00:00 25.9 10 Sudeste 27 Sudeste 0 -- -- 31
2020-09-08 15:00:00 24.8 9 Este 26 Este 0 -- -- 36
2020-09-08 14:00:00 22.6 9 Este 27 Nordeste 0 -- -- 39
2020-09-08 13:00:00 21 10 Este 24 Sudeste 0 -- -- 48
2020-09-08 12:00:00 19 10 Este 26 Nordeste 0 -- -- 51
2020-09-08 11:00:00 16.4 11 Este 24 Este 0 -- -- 63
2020-09-08 10:00:00 13 11 Este 25 Nordeste 0 -- -- 77
2020-09-08 09:00:00 10.1 3 Nordeste 10 Noroeste 0 -- -- 86
2020-09-08 08:00:00 8.2 5 Nordeste 9 Este 0 -- -- 91
2020-09-08 07:00:00 8.1 2 Sudoeste 13 Nordeste 0 -- -- 83
2020-09-08 06:00:00 9.1 4 Norte 14 Nordeste 0 -- -- 84
2020-09-08 05:00:00 9.7 4 Nordeste 15 Nordeste 0 -- -- 81
2020-09-08 04:00:00 9.9 4 Nordeste 17 Norte 0 -- -- 79
2020-09-08 03:00:00 10.6 5 Nordeste 17 Este 0 -- -- 75
2020-09-08 02:00:00 11 6 Este 22 Este 0 -- -- 73
2020-09-08 01:00:00 11.9 12 Nordeste 31 Nordeste 0 -- -- 67
2020-09-08 00:00:00 12.6 10 Nordeste 26 Nordeste 0 -- -- 61
2020-09-07 23:00:00 13.7 12 Nordeste 24 Nordeste 0 -- -- 57
2020-09-07 22:00:00 15.1 12 Nordeste 27 Nordeste 0 -- -- 52
2020-09-07 21:00:00 16.7 10 Nordeste 28 Este 0 -- -- 49
2020-09-07 20:00:00 18.8 12 Nordeste 32 Este 0 -- -- 48
2020-09-07 19:00:00 20.1 9 Nordeste 29 Nordeste 0 -- -- 46
2020-09-07 18:00:00 20.7 9 Nordeste 32 Este 0 -- -- 44
2020-09-07 17:00:00 20.9 13 Nordeste 31 Nordeste 0 -- -- 45
2020-09-07 16:00:00 20.6 18 Nordeste 32 Nordeste 0 -- -- 47
2020-09-07 15:00:00 20.4 14 Nordeste 32 Nordeste 0 -- -- 45
2020-09-07 14:00:00 19.3 13 Nordeste 30 Nordeste 0 -- -- 48
2020-09-07 13:00:00 18.2 16 Nordeste 35 Nordeste 0 -- -- 51
2020-09-07 12:00:00 16.8 21 Nordeste 36 Nordeste 0 -- -- 59
2020-09-07 11:00:00 15.8 13 Nordeste 35 Nordeste 0 -- -- 65
2020-09-07 10:00:00 13.5 14 Nordeste 30 Nordeste 0 -- -- 69
2020-09-07 09:00:00 12 5 Nordeste 15 Este 0 -- -- 77
2020-09-07 08:00:00 10.5 3 Norte 16 Este 0 -- -- 83
2020-09-07 07:00:00 10.5 6 Este 16 Nordeste 0 -- -- 85
2020-09-07 06:00:00 10.3 0 Calma 14 Nordeste 0 -- -- 85
2020-09-07 05:00:00 10.9 3 Nordeste 8 Noroeste 0 -- -- 83
2020-09-07 04:00:00 11.6 3 Norte 11 Este 0 -- -- 78
2020-09-07 03:00:00 11.8 4 Nordeste 13 Este 0 -- -- 77
2020-09-07 02:00:00 12.6 7 Nordeste 20 Nordeste 0 -- -- 77
2020-09-07 01:00:00 13.2 7 Nordeste 20 Nordeste 0 -- -- 75
2020-09-07 00:00:00 13.5 5 Nordeste 22 Este 0 -- -- 72
2020-09-06 23:00:00 13.9 7 Nordeste 22 Nordeste 0 -- -- 68
2020-09-06 22:00:00 14.7 7 Este 26 Nordeste 0 -- -- 64
2020-09-06 21:00:00 16.3 12 Nordeste 27 Norte 0 -- -- 59
2020-09-06 20:00:00 19 12 Nordeste 29 Nordeste 0 -- -- 53
2020-09-06 19:00:00 21.5 12 Nordeste 28 Nordeste 0 -- -- 45
2020-09-06 18:00:00 22.8 14 Nordeste 32 Este 0 -- -- 44
2020-09-06 17:00:00 23.2 14 Nordeste 27 Nordeste 0 -- -- 47
2020-09-06 16:00:00 22.9 12 Nordeste 26 Nordeste 0 -- -- 49
2020-09-06 15:00:00 22.4 13 Nordeste 29 Nordeste 0 -- -- 50
2020-09-06 14:00:00 22.6 9 Nordeste 27 Este 0 -- -- 51
2020-09-06 13:00:00 21.3 11 Nordeste 26 Este 0 -- -- 54
2020-09-06 12:00:00 20 9 Nordeste 28 Este 0 -- -- 59
2020-09-06 11:00:00 18.2 13 Nordeste 27 Nordeste 0 -- -- 66
2020-09-06 10:00:00 15.9 15 Nordeste 25 Este 0 -- -- 75
2020-09-06 09:00:00 14.8 8 Este 20 Este 0 -- -- 80
2020-09-06 08:00:00 14 8 Nordeste 24 Este 0 -- -- 81
2020-09-06 07:00:00 14.1 8 Nordeste 19 Nordeste 0 -- -- 80
2020-09-06 06:00:00 14.7 6 Nordeste 20 Este 0 -- -- 78
2020-09-06 05:00:00 15 9 Nordeste 25 Este 0 -- -- 77
2020-09-06 04:00:00 14.8 10 Nordeste 26 Este 0 -- -- 79
2020-09-06 03:00:00 15.3 15 Nordeste 28 Este 0 -- -- 78
2020-09-06 02:00:00 15.7 6 Nordeste 24 Nordeste 0 -- -- 77
2020-09-06 01:00:00 16 12 Este 26 Nordeste 0 -- -- 77
2020-09-06 00:00:00 16.3 7 Nordeste 24 Este 0 -- -- 76
2020-09-05 23:00:00 16.8 11 Nordeste 28 Este 0 -- -- 74
2020-09-05 22:00:00 17.7 10 Nordeste 27 Nordeste 0 -- -- 71
2020-09-05 21:00:00 19.4 7 Nordeste 23 Norte 0 -- -- 66
2020-09-05 20:00:00 22.8 10 Nordeste 30 Este 0 -- -- 57
2020-09-05 19:00:00 25.5 13 Nordeste 35 Nordeste 0 -- -- 51
2020-09-05 18:00:00 28.2 15 Nordeste 27 Nordeste 0 -- -- 42
2020-09-05 17:00:00 29.6 10 Nordeste 22 Nordeste 0 -- -- 39
2020-09-05 16:00:00 29.3 8 Nordeste 24 Nordeste 0 -- -- 38
2020-09-05 15:00:00 28.7 9 Nordeste 25 Nordeste 0 -- -- 41
2020-09-05 14:00:00 27.5 9 Nordeste 20 Nordeste 0 -- -- 45
2020-09-05 13:00:00 26.2 8 Este 23 Nordeste 0 -- -- 49
2020-09-05 12:00:00 24.1 11 Nordeste 23 Nordeste 0 -- -- 51
2020-09-05 11:00:00 22 9 Este 22 Nordeste 0 -- -- 58
2020-09-05 10:00:00 18.8 7 Nordeste 19 Nordeste 0 -- -- 65
2020-09-05 09:00:00 14 4 Norte 7 Noroeste 0 -- -- 77
2020-09-05 08:00:00 11.3 0 Calma 6 Oeste 0 -- -- 79
2020-09-05 07:00:00 12.1 0 Calma 5 Sudoeste 0 -- -- 76
2020-09-05 06:00:00 13.9 3 Noroeste 8 Noroeste 0 -- -- 70
2020-09-05 05:00:00 14.5 4 Noroeste 10 Noroeste 0 -- -- 67
2020-09-05 04:00:00 14 4 Norte 6 Norte 0 -- -- 70
2020-09-05 03:00:00 15.4 0 Calma 6 Sudoeste 0 -- -- 63
2020-09-05 02:00:00 16.3 2 Oeste 7 Noroeste 0 -- -- 60
2020-09-05 01:00:00 18.4 4 Noroeste 12 Oeste 0 -- -- 54
2020-09-05 00:00:00 17.3 3 Noroeste 9 Oeste 0 -- -- 56
2020-09-04 23:00:00 17.4 2 Sudeste 6 Sudoeste 0 -- -- 51
2020-09-04 22:00:00 20.1 2 Sur 6 Oeste 0 -- -- 40
2020-09-04 21:00:00 24.1 3 Noroeste 8 Oeste 0 -- -- 33
2020-09-04 20:00:00 31.3 6 Noroeste 16 Norte 0 -- -- 25
2020-09-04 19:00:00 32.6 8 Noroeste 21 Norte 0 -- -- 23
2020-09-04 18:00:00 33.2 8 Norte 20 Norte 0 -- -- 23
2020-09-04 17:00:00 33.5 13 Noroeste 28 Noroeste 0 -- -- 23
2020-09-04 16:00:00 32.9 6 Norte 19 Sur 0 -- -- 24
2020-09-04 15:00:00 32.7 6 Sur 16 Sudoeste 0 -- -- 26
2020-09-04 14:00:00 31.7 5 Sur 14 Sudoeste 0 -- -- 29
2020-09-04 13:00:00 29.1 4 Sudeste 13 Sudeste 0 -- -- 35
2020-09-04 12:00:00 26.5 4 Este 18 Sudeste 0 -- -- 44
2020-09-04 11:00:00 22.5 9 Sudeste 16 Sudeste 0 -- -- 47
2020-09-04 10:00:00 15.1 3 Sudeste 5 Sudeste 0 -- -- 66
2020-09-04 09:00:00 11 0 Calma 3 Sudeste 0 -- -- 77
2020-09-04 08:00:00 8.5 0 Calma 5 Sudeste 0 -- -- 78
2020-09-04 07:00:00 8.3 2 Sur 4 Sur 0 -- -- 75
2020-09-04 06:00:00 9.1 0 Calma 5 Norte 0 -- -- 74
2020-09-04 05:00:00 9.8 0 Calma 4 Sudoeste 0 -- -- 71
2020-09-04 04:00:00 10.3 0 Calma 4 Sudoeste 0 -- -- 70
2020-09-04 03:00:00 11 0 Calma 5 Oeste 0 -- -- 64
2020-09-04 02:00:00 12 4 Oeste 6 Noroeste 0 -- -- 71
2020-09-04 01:00:00 13 0 Calma 10 Nordeste 0 -- -- 60
2020-09-04 00:00:00 14.5 4 Norte 14 Norte 0 -- -- 58
2020-09-03 23:00:00 16.2 3 Sudoeste 5 Sudoeste 0 -- -- 44
2020-09-03 22:00:00 18.4 0 Calma 6 Sudoeste 0 -- -- 40
2020-09-03 21:00:00 21.8 5 Oeste 7 Sudoeste 0 -- -- 34
2020-09-03 20:00:00 30.2 2 Noroeste 4 Noroeste 0 -- -- 31
2020-09-03 19:00:00 30.3 0 Calma 8 Oeste 0 -- -- 24
2020-09-03 18:00:00 30.8 3 Oeste 13 Norte 0 -- -- 26
2020-09-03 17:00:00 30.5 3 Este 13 Norte 0 -- -- 27
2020-09-03 16:00:00 29.5 4 Norte 13 Noroeste 0 -- -- 28
2020-09-03 15:00:00 28.1 6 Norte 14 Norte 0 -- -- 32
2020-09-03 14:00:00 26.8 3 Nordeste 13 Norte 0 -- -- 36
2020-09-03 13:00:00 25.2 5 Norte 12 Noroeste 0 -- -- 40
2020-09-03 12:00:00 21.7 3 Noroeste 6 Oeste 0 -- -- 47
2020-09-03 11:00:00 18.2 2 Sudeste 8 Noroeste 0 -- -- 58
2020-09-03 10:00:00 12.6 0 Calma 6 Noroeste 0 -- -- 79
2020-09-03 09:00:00 10 4 Norte 8 Norte 0 -- -- 89
2020-09-03 08:00:00 7.5 2 Oeste 4 Noroeste 0 -- -- 88
2020-09-03 07:00:00 8.1 0 Calma 4 Sudoeste 0 -- -- 87
2020-09-03 06:00:00 8.5 0 Calma 3 Oeste 0 -- -- 86
2020-09-03 05:00:00 9.3 0 Calma 4 Noroeste 0 -- -- 83
2020-09-03 04:00:00 10.6 3 Noroeste 6 Norte 0 -- -- 80
2020-09-03 03:00:00 11.2 3 Oeste 5 Oeste 0 -- -- 78
2020-09-03 02:00:00 12.1 0 Calma 5 Sudeste 0 -- -- 73
2020-09-03 01:00:00 13.2 0 Calma 5 Nordeste 0 -- -- 67
2020-09-03 00:00:00 15.2 0 Calma 8 Este 0 -- -- 64
2020-09-02 23:00:00 15.8 0 Calma 8 Sudoeste 0 -- -- 60
2020-09-02 22:00:00 16.9 3 Sudoeste 5 Sudoeste 0 -- -- 52
2020-09-02 21:00:00 20.6 3 Noroeste 8 Norte 0 -- -- 43
2020-09-02 20:00:00 26 5 Noroeste 13 Oeste 0 -- -- 33
2020-09-02 19:00:00 26.8 8 Noroeste 17 Norte 0 -- -- 32
2020-09-02 18:00:00 27.1 6 Norte 18 Norte 0 -- -- 32
2020-09-02 17:00:00 26.7 8 Norte 20 Norte 0 -- -- 35
2020-09-02 16:00:00 26.4 9 Norte 21 Noroeste 0 -- -- 35
2020-09-02 15:00:00 25.9 9 Norte 22 Noroeste 0 -- -- 36
2020-09-02 14:00:00 23.7 8 Este 18 Sudeste 0 -- -- 41
2020-09-02 13:00:00 22.9 9 Sudeste 19 Este 0 -- -- 47
2020-09-02 12:00:00 20.4 11 Este 24 Este 0 -- -- 51
2020-09-02 11:00:00 18.7 13 Este 23 Este 0 -- -- 54
2020-09-02 10:00:00 15 8 Nordeste 17 Este 0 -- -- 72
2020-09-02 09:00:00 12.4 3 Este 9 Este 0 -- -- 84
2020-09-02 08:00:00 10.6 3 Nordeste 8 Norte 0 -- -- 88
2020-09-02 07:00:00 9.8 2 Nordeste 8 Este 0 -- -- 89
2020-09-02 06:00:00 10.4 3 Noroeste 5 Nordeste 0 -- -- 85
2020-09-02 05:00:00 11 2 Noroeste 9 Nordeste 0 -- -- 83
2020-09-02 04:00:00 12.3 4 Nordeste 11 Este 0 -- -- 81
2020-09-02 03:00:00 12.9 6 Este 15 Este 0 -- -- 80
2020-09-02 02:00:00 13.4 5 Este 12 Este 0 -- -- 78
2020-09-02 01:00:00 14.3 4 Nordeste 17 Este 0 -- -- 74
2020-09-02 00:00:00 15 5 Norte 18 Nordeste 0 -- -- 68
2020-09-01 23:00:00 16.1 10 Nordeste 30 Nordeste 0 -- -- 64
2020-09-01 22:00:00 17.5 9 Nordeste 24 Nordeste 0 -- -- 60
2020-09-01 21:00:00 20.5 11 Nordeste 27 Nordeste 0 -- -- 50
2020-09-01 20:00:00 24.1 13 Nordeste 24 Nordeste 0 -- -- 32
2020-09-01 19:00:00 26.7 7 Norte 19 Norte 0 -- -- 28
2020-09-01 18:00:00 27 6 Noroeste 19 Norte 0 -- -- 26
2020-09-01 17:00:00 27.9 9 Noroeste 21 Noroeste 0 -- -- 26
2020-09-01 16:00:00 26.8 5 Norte 16 Noroeste 0 -- -- 26
2020-09-01 15:00:00 25.9 5 Norte 21 Noroeste 0 -- -- 29
2020-09-01 14:00:00 25.5 4 Nordeste 12 Noroeste 0 -- -- 31
2020-09-01 13:00:00 24.1 5 Sudeste 12 Sudeste 0 -- -- 33
2020-09-01 12:00:00 22.7 5 Sudeste 12 Sudeste 0 -- -- 44
2020-09-01 11:00:00 18.7 3 Sudeste 8 Sudeste 0 -- -- 49
2020-09-01 10:00:00 13.7 3 Sudeste 5 Este 0 -- -- 70
2020-09-01 09:00:00 11 0 Calma 5 Noroeste 0 -- -- 84
2020-09-01 08:00:00 10.3 2 Noroeste 7 Noroeste 0 -- -- 78
2020-09-01 07:00:00 11.1 3 Noroeste 8 Noroeste 0 -- -- 80
2020-09-01 06:00:00 11.1 0 Calma 3 Sudoeste 0 -- -- 72
2020-09-01 05:00:00 11.9 0 Calma 7 Oeste 0 -- -- 70
2020-09-01 04:00:00 11.7 4 Noroeste 12 Noroeste 0 -- -- 71
2020-09-01 03:00:00 10.8 3 Norte 6 Norte 0 -- -- 69
2020-09-01 02:00:00 10.7 2 Norte 4 Noroeste 0 -- -- 70
2020-09-01 01:00:00 11.1 0 Calma 6 Sudoeste 0 -- -- 61
2020-09-01 00:00:00 11 6 Sudoeste 8 Sudoeste 0 -- -- 57
2020-08-31 23:00:00 12.7 0 Calma 3 Oeste 0 -- -- 54
2020-08-31 22:00:00 15.5 0 Calma 4 Noroeste 0 -- -- 53
2020-08-31 21:00:00 18.4 0 Calma 8 Norte 0 -- -- 51
2020-08-31 20:00:00 20.8 4 Noroeste 16 Norte 0 -- -- 33
2020-08-31 19:00:00 23.2 12 Noroeste 23 Noroeste 0 -- -- 29
2020-08-31 18:00:00 22.6 8 Norte 20 Norte 0 -- -- 29
2020-08-31 17:00:00 23.1 9 Noroeste 22 Noroeste 0 -- -- 31
2020-08-31 16:00:00 22.2 12 Noroeste 23 Noroeste 0 -- -- 35
2020-08-31 15:00:00 22.2 10 Noroeste 21 Sudeste 0 -- -- 35
2020-08-31 14:00:00 21.3 7 Sudeste 16 Oeste 0 -- -- 41
2020-08-31 13:00:00 19.2 6 Norte 13 Noroeste 0 -- -- 44
2020-08-31 12:00:00 17.8 4 Sudeste 9 Sudeste 0 -- -- 53
2020-08-31 11:00:00 13.8 4 Sudeste 10 Sudeste 0 -- -- 69
2020-08-31 10:00:00 8.6 2 Norte 5 Sudeste 0 -- -- 85
2020-08-31 09:00:00 6.1 4 Noroeste 9 Norte 0 -- -- 94
2020-08-31 08:00:00 3.4 0 Calma 4 Oeste 0 -- -- 93
2020-08-31 07:00:00 3.8 0 Calma 5 Oeste 0 -- -- 89
2020-08-31 06:00:00 5.1 3 Noroeste 5 Noroeste 0 -- -- 89
2020-08-31 05:00:00 5.7 4 Noroeste 6 Noroeste 0 -- -- 90
2020-08-31 04:00:00 6.6 4 Noroeste 6 Noroeste 0 -- -- 86
2020-08-31 03:00:00 7.2 3 Noroeste 4 Noroeste 0 -- -- 84
2020-08-31 02:00:00 8.6 0 Calma 13 Sudeste 0 -- -- 79
2020-08-31 01:00:00 9.5 3 Oeste 11 Nordeste 0 -- -- 77
2020-08-31 00:00:00 11.2 5 Este 11 Este 0 -- -- 72
2020-08-30 23:00:00 12.3 5 Nordeste 17 Este 0 -- -- 66
2020-08-30 22:00:00 13.8 6 Nordeste 17 Nordeste 0 -- -- 58
2020-08-30 21:00:00 15.7 13 Nordeste 26 Este 0 -- -- 51
2020-08-30 20:00:00 18.2 9 Este 23 Nordeste 0 -- -- 41
2020-08-30 19:00:00 20.2 5 Norte 21 Nordeste 0 -- -- 38
2020-08-30 18:00:00 20.2 6 Norte 15 Norte 0 -- -- 36
2020-08-30 17:00:00 19.2 4 Oeste 13 Nordeste 0 -- -- 39
2020-08-30 16:00:00 19.1 4 Sudeste 10 Norte 0 -- -- 44
2020-08-30 15:00:00 17.6 6 Noroeste 12 Este 0 -- -- 48
2020-08-30 14:00:00 16.5 4 Sudeste 8 Sudeste 0 -- -- 55
2020-08-30 13:00:00 15.4 3 Norte 11 Noroeste 0 -- -- 54
2020-08-30 12:00:00 17 4 Norte 15 Nordeste 0 -- -- 51
2020-08-30 11:00:00 14.4 7 Norte 15 Noroeste 0 -- -- 60
2020-08-30 10:00:00 10.2 3 Nordeste 8 Nordeste 0 -- -- 79
2020-08-30 09:00:00 6.5 3 Oeste 7 Sudoeste 0 -- -- 94
2020-08-30 08:00:00 4.4 0 Calma 5 Oeste 0 -- -- 92
2020-08-30 07:00:00 5 0 Calma 5 Oeste 0 -- -- 93
2020-08-30 06:00:00 4.8 0 Calma 6 Oeste 0 -- -- 90
2020-08-30 05:00:00 5.3 0 Calma 9 Noroeste 0 -- -- 90
2020-08-30 04:00:00 5.9 0 Calma 8 Sudoeste 0 -- -- 86
2020-08-30 03:00:00 6.6 4 Sudoeste 7 Sudoeste 0 -- -- 83
2020-08-30 02:00:00 8 3 Oeste 5 Sudoeste 0 -- -- 78
2020-08-30 01:00:00 9.8 3 Norte 8 Noroeste 0 -- -- 75
2020-08-30 00:00:00 9.7 2 Sudoeste 8 Este 0 -- -- 76
2020-08-29 23:00:00 11.7 3 Nordeste 17 Nordeste 0 -- -- 71
2020-08-29 22:00:00 13 6 Nordeste 16 Norte 0 -- -- 69
2020-08-29 21:00:00 14.2 5 Nordeste 32 Noroeste 0 -- -- 61
2020-08-29 20:00:00 16.4 12 Norte 37 Noroeste 0 -- -- 51
2020-08-29 19:00:00 17.7 15 Norte 36 Norte 0 -- -- 45
2020-08-29 18:00:00 19.2 15 Norte 34 Noroeste 0 -- -- 43
2020-08-29 17:00:00 20.3 14 Norte 30 Noroeste 0 -- -- 44
2020-08-29 16:00:00 19.9 17 Norte 39 Noroeste 0 -- -- 40
2020-08-29 15:00:00 19.7 22 Noroeste 37 Noroeste 0 -- -- 41
2020-08-29 14:00:00 20.2 23 Noroeste 38 Noroeste 0 -- -- 43
2020-08-29 13:00:00 18.4 14 Noroeste 29 Noroeste 0 -- -- 46
2020-08-29 12:00:00 17.9 19 Noroeste 32 Noroeste 0 -- -- 47
2020-08-29 11:00:00 16.2 9 Noroeste 24 Noroeste 0 -- -- 57
2020-08-29 10:00:00 11.3 9 Norte 18 Noroeste 0 -- -- 73
2020-08-29 09:00:00 9.6 8 Noroeste 14 Noroeste 0 -- -- 78
2020-08-29 08:00:00 6.9 2 Este 4 Sudeste 0 -- -- 86
2020-08-29 07:00:00 7.6 3 Noroeste 8 Oeste 0 -- -- 84
2020-08-29 06:00:00 8.1 2 Noroeste 6 Oeste 0 -- -- 82
2020-08-29 05:00:00 8.8 4 Noroeste 7 Oeste 0 -- -- 79
2020-08-29 04:00:00 9.8 5 Noroeste 13 Noroeste 0 -- -- 76
2020-08-29 03:00:00 10.2 2 Norte 8 Noroeste 0 -- -- 82
2020-08-29 02:00:00 11.1 2 Noroeste 7 Nordeste 0 -- -- 80
2020-08-29 01:00:00 12.7 0 Calma 11 Norte 0 -- -- 73
2020-08-29 00:00:00 14 4 Nordeste 18 Nordeste 0 -- -- 71
2020-08-28 23:00:00 14.7 8 Nordeste 21 Este 0 -- -- 72
2020-08-28 22:00:00 15.1 4 Nordeste 26 Este 0 -- -- 69
2020-08-28 21:00:00 16.1 9 Nordeste 30 Nordeste 0 -- -- 65
2020-08-28 20:00:00 19.8 12 Nordeste 33 Noroeste 0 -- -- 56
2020-08-28 19:00:00 25.4 18 Noroeste 38 Noroeste 0 -- -- 27
2020-08-28 18:00:00 26.5 15 Noroeste 33 Noroeste 0 -- -- 26
2020-08-28 17:00:00 26.8 15 Noroeste 33 Oeste 0 -- -- 28
2020-08-28 16:00:00 26.8 14 Noroeste 30 Noroeste 0 -- -- 34
2020-08-28 15:00:00 26.1 16 Oeste 32 Oeste 0 -- -- 37
2020-08-28 14:00:00 25.2 16 Oeste 32 Oeste 0 -- -- 41
2020-08-28 13:00:00 24.8 14 Noroeste 29 Noroeste 0 -- -- 40
2020-08-28 12:00:00 24.1 15 Noroeste 29 Noroeste 0 -- -- 47
2020-08-28 11:00:00 22.1 12 Noroeste 23 Noroeste 0 -- -- 62
2020-08-28 10:00:00 18.8 8 Oeste 19 Oeste 0 -- -- 79
2020-08-28 09:00:00 17.5 3 Norte 4 Norte 0 -- -- 90
2020-08-28 08:00:00 16.7 0 Calma 5 Noroeste 0 -- -- 89
2020-08-28 07:00:00 16.5 0 Calma 4 Norte 0 -- -- 88
2020-08-28 06:00:00 16.8 3 Oeste 6 Sudoeste 0 -- -- 90
2020-08-28 05:00:00 16.4 0 Calma 6 Noroeste 0 -- -- 88
2020-08-28 04:00:00 17.7 0 Calma 13 Noroeste 0 -- -- 86
2020-08-28 03:00:00 18.3 6 Noroeste 10 Noroeste 0 -- -- 86
2020-08-28 02:00:00 19.2 5 Noroeste 8 Norte 0 -- -- 83
2020-08-28 01:00:00 19.5 3 Noroeste 9 Noroeste 0 -- -- 81
2020-08-28 00:00:00 20.2 5 Noroeste 12 Este 0 -- -- 78
2020-08-27 23:00:00 22.3 6 Norte 19 Noroeste 0 -- -- 68
2020-08-27 22:00:00 25.5 10 Noroeste 20 Norte 0 -- -- 45
2020-08-27 21:00:00 26.1 4 Oeste 14 Noroeste 0 -- -- 35
2020-08-27 20:00:00 31.5 7 Noroeste 24 Norte 0 -- -- 26
2020-08-27 19:00:00 32.4 12 Noroeste 30 Oeste 0 -- -- 26
2020-08-27 18:00:00 33.3 13 Noroeste 29 Noroeste 0 -- -- 26
2020-08-27 17:00:00 33.8 12 Noroeste 26 Oeste 0 -- -- 29
2020-08-27 16:00:00 33.1 13 Oeste 25 Noroeste 0 -- -- 32
2020-08-27 15:00:00 31.8 10 Noroeste 22 Oeste 0 -- -- 38
2020-08-27 14:00:00 30.2 10 Oeste 22 Noroeste 0 -- -- 44
2020-08-27 13:00:00 28.3 7 Noroeste 20 Norte 0 -- -- 47
2020-08-27 12:00:00 25.5 3 Nordeste 10 Noroeste 0 -- -- 60
2020-08-27 11:00:00 22.5 6 Norte 16 Noroeste 0 -- -- 72
2020-08-27 10:00:00 18.4 2 Sudeste 5 Sudeste 0 -- -- 87
2020-08-27 09:00:00 17 2 Sudeste 5 Oeste 0 -- -- 92
2020-08-27 08:00:00 15.4 4 Noroeste 8 Noroeste 0 -- -- 95
2020-08-27 07:00:00 14.9 3 Noroeste 5 Noroeste 0 -- -- 91
2020-08-27 06:00:00 15.9 2 Sudeste 5 Noroeste 0 -- -- 90
2020-08-27 05:00:00 16.9 4 Noroeste 6 Noroeste 0 -- -- 91
2020-08-27 04:00:00 17.1 4 Noroeste 6 Noroeste 0 -- -- 90
2020-08-27 03:00:00 17.8 4 Noroeste 9 Noroeste 0 -- -- 86
2020-08-27 02:00:00 18.4 4 Noroeste 8 Noroeste 0 -- -- 84
2020-08-27 01:00:00 18.7 4 Noroeste 9 Noroeste 0 -- -- 78
2020-08-27 00:00:00 18.7 3 Sudoeste 8 Noroeste 0 -- -- 61
2020-08-26 23:00:00 20.4 0 Calma 4 Sudoeste 0 -- -- 52
2020-08-26 22:00:00 23.7 0 Calma 10 Noroeste 0 -- -- 45
2020-08-26 21:00:00 27.4 5 Noroeste 13 Noroeste 0 -- -- 37
2020-08-26 20:00:00 32.2 8 Noroeste 21 Noroeste 0 -- -- 27
2020-08-26 19:00:00 33.4 8 Noroeste 17 Oeste 0 -- -- 27
2020-08-26 18:00:00 33.9 9 Noroeste 23 Oeste 0 -- -- 26
2020-08-26 17:00:00 34 9 Oeste 24 Noroeste 0 -- -- 28
2020-08-26 16:00:00 33.1 10 Sudoeste 23 Sudoeste 0 -- -- 30
2020-08-26 15:00:00 31.8 8 Noroeste 17 Noroeste 0 -- -- 33
2020-08-26 14:00:00 29.9 5 Noroeste 15 Norte 0 -- -- 41
2020-08-26 13:00:00 28.1 9 Noroeste 16 Noroeste 0 -- -- 50
2020-08-26 12:00:00 24.8 5 Noroeste 13 Norte 0 -- -- 57
2020-08-26 11:00:00 21.8 7 Noroeste 12 Norte 0 -- -- 67
2020-08-26 10:00:00 17.5 4 Nordeste 9 Este 0 -- -- 79
2020-08-26 09:00:00 15.4 2 Sudeste 5 Sudeste 0 -- -- 89
2020-08-26 08:00:00 12.9 3 Sudoeste 8 Norte 0 -- -- 91
2020-08-26 07:00:00 12.6 4 Noroeste 8 Noroeste 0 -- -- 93
2020-08-26 06:00:00 13.3 0 Calma 5 Noroeste 0 -- -- 88
2020-08-26 05:00:00 14 3 Noroeste 6 Norte 0 -- -- 87
2020-08-26 04:00:00 15.4 2 Noroeste 12 Noroeste 0 -- -- 84
2020-08-26 03:00:00 15.8 6 Noroeste 10 Noroeste 0 -- -- 82
2020-08-26 02:00:00 16.4 4 Noroeste 8 Noroeste 0 -- -- 77
2020-08-26 01:00:00 17.9 5 Noroeste 11 Norte 0 -- -- 71
2020-08-26 00:00:00 19.9 3 Noroeste 6 Norte 0 -- -- 64
2020-08-25 23:00:00 21.9 3 Nordeste 9 Noroeste 0 -- -- 54
2020-08-25 22:00:00 23.5 6 Noroeste 10 Noroeste 0 -- -- 37
2020-08-25 21:00:00 26.2 7 Oeste 13 Noroeste 0 -- -- 33
2020-08-25 20:00:00 32.3 7 Oeste 23 Noroeste 0 -- -- 27
2020-08-25 19:00:00 33.3 12 Noroeste 26 Oeste 0 -- -- 23
2020-08-25 18:00:00 33.9 12 Noroeste 26 Oeste 0 -- -- 24
2020-08-25 17:00:00 33.9 12 Oeste 36 Oeste 0 -- -- 26
2020-08-25 16:00:00 33.5 12 Oeste 34 Oeste 0 -- -- 28
2020-08-25 15:00:00 32.9 12 Oeste 27 Oeste 0 -- -- 29
2020-08-25 14:00:00 31.8 12 Noroeste 24 Noroeste 0 -- -- 31
2020-08-25 13:00:00 29.9 6 Oeste 17 Oeste 0 -- -- 36
2020-08-25 12:00:00 26.9 4 Sudeste 9 Sudeste 0 -- -- 45
2020-08-25 11:00:00 22.7 4 Sudeste 12 Sudeste 0 -- -- 51
2020-08-25 10:00:00 16.7 6 Sudeste 11 Sudeste 0 -- -- 70
2020-08-25 09:00:00 13.4 3 Sudeste 5 Sudeste 0 -- -- 82
2020-08-25 08:00:00 9.9 0 Calma 3 Oeste 0 -- -- 86
2020-08-25 07:00:00 10.1 3 Oeste 5 Norte 0 -- -- 83
2020-08-25 06:00:00 10.7 2 Sudoeste 4 Oeste 0 -- -- 80
2020-08-25 05:00:00 11.6 0 Calma 4 Este 0 -- -- 80
2020-08-25 04:00:00 12.1 3 Sudeste 9 Sur 0 -- -- 81
2020-08-25 03:00:00 12.6 3 Sudeste 5 Sudeste 0 -- -- 77
2020-08-25 02:00:00 13.1 0 Calma 4 Sudeste 0 -- -- 74
2020-08-25 01:00:00 14.1 0 Calma 4 Sudoeste 0 -- -- 68
2020-08-25 00:00:00 15.2 0 Calma 7 Sudoeste 0 -- -- 63
2020-08-24 23:00:00 16.4 0 Calma 3 Sudoeste 0 -- -- 60
2020-08-24 22:00:00 18.7 3 Sudoeste 6 Sudoeste 0 -- -- 50
2020-08-24 21:00:00 24.1 4 Oeste 9 Noroeste 0 -- -- 37
2020-08-24 20:00:00 29.1 4 Noroeste 14 Noroeste 0 -- -- 31
2020-08-24 19:00:00 29.6 6 Noroeste 18 Noroeste 0 -- -- 31
2020-08-24 18:00:00 29 6 Norte 14 Noroeste 0 -- -- 30
2020-08-24 17:00:00 29.1 5 Noroeste 12 Noroeste 0 -- -- 31
2020-08-24 16:00:00 28.2 4 Norte 15 Oeste 0 -- -- 37
2020-08-24 15:00:00 27.1 7 Nordeste 20 Noroeste 0 -- -- 40
2020-08-24 14:00:00 25.9 9 Noroeste 18 Noroeste 0 -- -- 44
2020-08-24 13:00:00 23.8 8 Este 17 Este 0 -- -- 55
2020-08-24 12:00:00 21.6 7 Nordeste 17 Nordeste 0 -- -- 55
2020-08-24 11:00:00 19.4 7 Este 17 Nordeste 0 -- -- 63
2020-08-24 10:00:00 15.7 6 Nordeste 19 Nordeste 0 -- -- 76
2020-08-24 09:00:00 14.4 6 Nordeste 15 Nordeste 0 -- -- 81
2020-08-24 08:00:00 11.6 2 Norte 6 Este 0 -- -- 88
2020-08-24 07:00:00 12.8 2 Este 12 Nordeste 0 -- -- 84
2020-08-24 06:00:00 13.2 3 Nordeste 12 Nordeste 0 -- -- 83
2020-08-24 05:00:00 13.5 5 Nordeste 13 Nordeste 0 -- -- 85
2020-08-24 04:00:00 13.9 2 Nordeste 8 Nordeste 0 -- -- 83
2020-08-24 03:00:00 14.5 3 Nordeste 8 Norte 0 -- -- 82
2020-08-24 02:00:00 15.4 3 Norte 6 Nordeste 0 -- -- 78
2020-08-24 01:00:00 16.4 2 Norte 10 Nordeste 0 -- -- 74
2020-08-24 00:00:00 17.9 4 Nordeste 11 Nordeste 0 -- -- 70
2020-08-23 23:00:00 19.7 5 Norte 13 Norte 0 -- -- 64
2020-08-23 22:00:00 21.9 6 Nordeste 14 Nordeste 0 -- -- 53
2020-08-23 21:00:00 24.5 6 Nordeste 15 Nordeste 0 -- -- 39
2020-08-23 20:00:00 26.6 3 Nordeste 19 Norte 0 -- -- 34
2020-08-23 19:00:00 26.7 11 Norte 22 Noroeste 0 -- -- 32
2020-08-23 18:00:00 28.4 11 Norte 25 Norte 0 -- -- 31
2020-08-23 17:00:00 28.4 10 Norte 23 Noroeste 0 -- -- 31
2020-08-23 16:00:00 28.3 8 Norte 16 Noroeste 0 -- -- 32
2020-08-23 15:00:00 26.5 8 Este 17 Nordeste 0 -- -- 41
2020-08-23 14:00:00 24.7 5 Nordeste 18 Nordeste 0 -- -- 41
2020-08-23 13:00:00 23.1 6 Nordeste 17 Nordeste 0 -- -- 55
2020-08-23 12:00:00 21.3 8 Este 20 Este 0 -- -- 59
2020-08-23 11:00:00 18.9 7 Nordeste 18 Nordeste 0 -- -- 69
2020-08-23 10:00:00 16.2 8 Nordeste 16 Este 0 -- -- 81
2020-08-23 09:00:00 13.8 3 Norte 9 Noroeste 0 -- -- 92
2020-08-23 08:00:00 11.4 4 Noroeste 8 Noroeste 0 -- -- 95
2020-08-23 07:00:00 11.4 4 Noroeste 7 Noroeste 0 -- -- 93
2020-08-23 06:00:00 11.8 3 Noroeste 4 Noroeste 0 -- -- 92
2020-08-23 05:00:00 11.9 0 Calma 4 Nordeste 0 -- -- 92
2020-08-23 04:00:00 12.7 0 Calma 5 Noroeste 0 -- -- 88
2020-08-23 03:00:00 14 0 Calma 9 Nordeste 0 -- -- 85
2020-08-23 02:00:00 14.9 3 Nordeste 13 Nordeste 0 -- -- 83
2020-08-23 01:00:00 15.7 5 Nordeste 12 Este 0 -- -- 83
2020-08-23 00:00:00 16.5 4 Nordeste 13 Nordeste 0 -- -- 79